Time,TemperatureF,DewpointF,PressureIn,WindDirection,WindDirectionDegrees,WindSpeedMPH,WindSpeedGustMPH,Humidity,HourlyPrecipIn,Conditions,Clouds,dailyrainin,SoftwareType,DateUTC
2013-02-10 00:00:00,77.7,67.2,29.81,South,170,0.0,0.0,70,0.00,CLR,,0.00,WeatherDisplay:10.37,2013-02-09 13:00:00,
2013-02-10 00:05:00,77.5,67.0,29.81,SSE,165,0.0,0.0,70,0.00,CLR,,0.00,WeatherDisplay:10.37,2013-02-09 13:05:00,
2013-02-10 00:10:00,77.5,67.0,29.81,South,180,0.0,0.0,70,0.00,CLR,,0.00,WeatherDisplay:10.37,2013-02-09 13:10:00,
2013-02-10 00:15:00,77.4,66.8,29.82,SSW,205,1.0,2.0,70,0.00,CLR,,0.00,WeatherDisplay:10.37,2013-02-09 13:15:00,
2013-02-10 00:20:00,77.4,66.8,29.82,SW,225,1.0,4.0,70,0.00,CLR,,0.00,WeatherDisplay:10.37,2013-02-09 13:20:00,
2013-02-10 00:25:00,77.2,66.6,29.82,SW,215,2.0,5.0,70,0.00,CLR,,0.00,WeatherDisplay:10.37,2013-02-09 13:25:00,
2013-02-10 00:30:00,77.2,67.0,29.82,SW,221,1.0,4.0,71,0.00,CLR,,0.00,WeatherDisplay:10.37,2013-02-09 13:30:00,
2013-02-10 00:35:00,77.1,67.0,29.82,SW,224,2.0,5.0,71,0.00,CLR,,0.00,WeatherDisplay:10.37,2013-02-09 13:35:00,
2013-02-10 00:40:00,76.9,66.8,29.82,SW,214,2.0,6.0,71,0.00,CLR,,0.00,WeatherDisplay:10.37,2013-02-09 13:40:00,
2013-02-10 00:45:00,76.8,66.7,29.83,SW,224,1.0,4.0,71,0.00,CLR,,0.00,WeatherDisplay:10.37,2013-02-09 13:45:00,
2013-02-10 00:50:00,76.8,67.1,29.83,SW,230,0.0,2.0,72,0.00,CLR,,0.00,WeatherDisplay:10.37,2013-02-09 13:50:00,
2013-02-10 00:55:00,76.8,67.1,29.83,SW,223,0.0,1.0,72,0.00,CLR,,0.00,WeatherDisplay:10.37,2013-02-09 13:55:00,
2013-02-10 01:00:00,76.8,67.1,29.82,SW,215,0.0,2.0,72,0.00,CLR,,0.00,WeatherDisplay:10.37,2013-02-09 14:00:00,
2013-02-10 01:05:00,76.8,67.1,29.82,SW,218,0.0,2.0,72,0.00,CLR,,0.00,WeatherDisplay:10.37,2013-02-09 14:05:00,
2013-02-10 01:10:00,76.8,67.1,29.82,SW,228,0.0,2.0,72,0.00,CLR,,0.00,WeatherDisplay:10.37,2013-02-09 14:10:00,
2013-02-10 01:15:00,76.6,67.3,29.82,SW,217,0.0,3.0,73,0.00,CLR,,0.00,WeatherDisplay:10.37,2013-02-09 14:15:00,
2013-02-10 01:20:00,76.6,67.3,29.81,SSW,201,0.0,0.0,73,0.00,CLR,,0.00,WeatherDisplay:10.37,2013-02-09 14:20:00,
2013-02-10 01:25:00,76.6,67.3,29.82,South,184,0.0,0.0,73,0.00,CLR,,0.00,WeatherDisplay:10.37,2013-02-09 14:25:00,
2013-02-10 01:30:00,76.6,67.3,29.82,SSE,156,0.0,0.0,73,0.00,CLR,,0.00,WeatherDisplay:10.37,2013-02-09 14:30:00,
2013-02-10 01:35:00,76.6,67.3,29.81,East,79,0.0,0.0,73,0.00,CLR,,0.00,WeatherDisplay:10.37,2013-02-09 14:35:00,
2013-02-10 01:40:00,76.3,67.0,29.81,NNE,29,0.0,1.0,73,0.00,CLR,,0.00,WeatherDisplay:10.37,2013-02-09 14:40:00,
2013-02-10 01:45:00,76.3,67.0,29.80,NE,40,0.0,0.0,73,0.00,CLR,,0.00,WeatherDisplay:10.37,2013-02-09 14:45:00,
2013-02-10 01:50:00,76.3,67.4,29.80,ESE,118,0.0,0.0,74,0.00,CLR,,0.00,WeatherDisplay:10.37,2013-02-09 14:50:00,
2013-02-10 01:55:00,76.3,67.4,29.80,SSE,168,0.0,0.0,74,0.00,CLR,,0.00,WeatherDisplay:10.37,2013-02-09 14:55:00,
2013-02-10 02:00:00,76.1,67.2,29.81,SW,217,0.0,2.0,74,0.00,CLR,,0.00,WeatherDisplay:10.37,2013-02-09 15:00:00,
2013-02-10 02:05:00,75.9,67.0,29.80,WSW,241,0.0,2.0,74,0.00,CLR,,0.00,WeatherDisplay:10.37,2013-02-09 15:05:00,
2013-02-10 02:10:00,75.9,67.0,29.81,WSW,244,0.0,3.0,74,0.00,CLR,,0.00,WeatherDisplay:10.37,2013-02-09 15:10:00,
2013-02-10 02:15:00,75.9,67.4,29.81,SW,231,1.0,5.0,75,0.00,CLR,,0.00,WeatherDisplay:10.37,2013-02-09 15:15:00,
2013-02-10 02:20:00,75.8,67.3,29.81,SW,218,1.0,5.0,75,0.00,CLR,,0.00,WeatherDisplay:10.37,2013-02-09 15:20:00,
2013-02-10 02:25:00,75.7,67.2,29.80,SW,214,1.0,5.0,75,0.00,CLR,,0.00,WeatherDisplay:10.37,2013-02-09 15:25:00,
2013-02-10 02:30:00,75.7,67.6,29.81,SSW,212,0.0,6.0,76,0.00,CLR,,0.00,WeatherDisplay:10.37,2013-02-09 15:30:00,
2013-02-10 02:35:00,75.7,67.6,29.81,South,180,0.0,0.0,76,0.00,CLR,,0.00,WeatherDisplay:10.37,2013-02-09 15:35:00,
2013-02-10 02:40:00,75.6,67.5,29.80,East,91,0.0,0.0,76,0.00,CLR,,0.00,WeatherDisplay:10.37,2013-02-09 15:40:00,
2013-02-10 02:45:00,75.5,67.4,29.80,NE,51,0.0,0.0,76,0.00,CLR,,0.00,WeatherDisplay:10.37,2013-02-09 15:45:00,
2013-02-10 02:50:00,75.4,67.3,29.80,NE,48,0.0,0.0,76,0.00,CLR,,0.00,WeatherDisplay:10.37,2013-02-09 15:50:00,
2013-02-10 02:55:00,75.4,67.3,29.80,NE,55,0.0,0.0,76,0.00,CLR,,0.00,WeatherDisplay:10.37,2013-02-09 15:55:00,
2013-02-10 03:00:00,75.4,67.3,29.80,ENE,63,0.0,0.0,76,0.00,CLR,,0.00,WeatherDisplay:10.37,2013-02-09 16:00:00,
2013-02-10 03:05:00,75.3,67.2,29.79,ENE,68,0.0,0.0,76,0.00,CLR,,0.00,WeatherDisplay:10.37,2013-02-09 16:05:00,
2013-02-10 03:10:00,75.0,66.9,29.79,ESE,110,0.0,0.0,76,0.00,CLR,,0.00,WeatherDisplay:10.37,2013-02-09 16:10:00,
2013-02-10 03:15:00,75.0,66.9,29.79,SE,144,0.0,0.0,76,0.00,CLR,,0.00,WeatherDisplay:10.37,2013-02-09 16:15:00,
2013-02-10 03:20:00,74.9,66.8,29.80,South,170,0.0,0.0,76,0.00,CLR,,0.00,WeatherDisplay:10.37,2013-02-09 16:20:00,
2013-02-10 03:25:00,74.8,67.1,29.80,SW,230,0.0,2.0,77,0.00,CLR,,0.00,WeatherDisplay:10.37,2013-02-09 16:25:00,
2013-02-10 03:30:00,74.8,67.1,29.79,SW,222,0.0,0.0,77,0.00,CLR,,0.00,WeatherDisplay:10.37,2013-02-09 16:30:00,
2013-02-10 03:35:00,74.8,67.1,29.79,SW,223,0.0,0.0,77,0.00,CLR,,0.00,WeatherDisplay:10.37,2013-02-09 16:35:00,
2013-02-10 03:40:00,74.8,67.1,29.79,WSW,247,0.0,0.0,77,0.00,CLR,,0.00,WeatherDisplay:10.37,2013-02-09 16:40:00,
2013-02-10 03:45:00,74.7,67.0,29.79,NW,312,0.0,0.0,77,0.00,CLR,,0.00,WeatherDisplay:10.37,2013-02-09 16:45:00,
2013-02-10 03:50:00,74.5,66.8,29.78,North,359,0.0,0.0,77,0.00,CLR,,0.00,WeatherDisplay:10.37,2013-02-09 16:50:00,
2013-02-10 03:55:00,74.5,67.2,29.78,North,357,0.0,0.0,78,0.00,CLR,,0.00,WeatherDisplay:10.37,2013-02-09 16:55:00,
2013-02-10 04:00:00,74.4,67.1,29.78,North,11,0.0,0.0,78,0.00,CLR,,0.00,WeatherDisplay:10.37,2013-02-09 17:00:00,
2013-02-10 04:05:00,74.3,67.0,29.77,NNE,20,0.0,0.0,78,0.00,CLR,,0.00,WeatherDisplay:10.37,2013-02-09 17:05:00,
2013-02-10 04:10:00,74.1,66.8,29.77,NNE,20,0.0,0.0,78,0.00,CLR,,0.00,WeatherDisplay:10.37,2013-02-09 17:10:00,
2013-02-10 04:15:00,74.1,66.8,29.77,NNE,23,0.0,0.0,78,0.00,CLR,,0.00,WeatherDisplay:10.37,2013-02-09 17:15:00,
2013-02-10 04:20:00,73.9,66.6,29.77,NE,50,0.0,0.0,78,0.00,CLR,,0.00,WeatherDisplay:10.37,2013-02-09 17:20:00,
2013-02-10 04:25:00,73.9,66.6,29.77,SSW,210,0.0,0.0,78,0.00,CLR,,0.00,WeatherDisplay:10.37,2013-02-09 17:25:00,
2013-02-10 04:30:00,73.9,66.6,29.77,SW,234,0.0,0.0,78,0.00,CLR,,0.00,WeatherDisplay:10.37,2013-02-09 17:30:00,
2013-02-10 04:35:00,73.9,66.6,29.76,West,266,0.0,0.0,78,0.00,CLR,,0.00,WeatherDisplay:10.37,2013-02-09 17:35:00,
2013-02-10 04:40:00,73.9,66.6,29.76,NE,46,0.0,0.0,78,0.00,CLR,,0.00,WeatherDisplay:10.37,2013-02-09 17:40:00,
2013-02-10 04:45:00,73.8,66.5,29.75,East,94,0.0,0.0,78,0.00,CLR,,0.00,WeatherDisplay:10.37,2013-02-09 17:45:00,
2013-02-10 04:50:00,73.7,66.4,29.75,East,86,0.0,0.0,78,0.00,CLR,,0.00,WeatherDisplay:10.37,2013-02-09 17:50:00,
2013-02-10 04:55:00,73.6,66.3,29.76,NE,45,0.0,0.0,78,0.00,CLR,,0.00,WeatherDisplay:10.37,2013-02-09 17:55:00,
2013-02-10 05:00:00,73.6,66.3,29.76,NNW,336,0.0,0.0,78,0.00,CLR,,0.00,WeatherDisplay:10.37,2013-02-09 18:00:00,
2013-02-10 05:05:00,73.6,66.3,29.75,North,5,0.0,2.0,78,0.00,CLR,,0.00,WeatherDisplay:10.37,2013-02-09 18:05:00,
2013-02-10 05:10:00,73.5,66.2,29.75,NNE,13,1.0,2.0,78,0.00,CLR,,0.00,WeatherDisplay:10.37,2013-02-09 18:10:00,
2013-02-10 05:15:00,73.4,66.1,29.75,North,359,0.0,0.0,78,0.00,CLR,,0.00,WeatherDisplay:10.37,2013-02-09 18:15:00,
2013-02-10 05:20:00,73.2,65.9,29.76,NW,309,0.0,0.0,78,0.00,CLR,,0.00,WeatherDisplay:10.37,2013-02-09 18:20:00,
2013-02-10 05:25:00,73.2,66.3,29.76,West,269,1.0,3.0,79,0.00,CLR,,0.00,WeatherDisplay:10.37,2013-02-09 18:25:00,
2013-02-10 05:30:00,73.2,66.3,29.77,West,266,0.0,2.0,79,0.00,CLR,,0.00,WeatherDisplay:10.37,2013-02-09 18:30:00,
2013-02-10 05:35:00,73.2,66.3,29.77,NW,315,0.0,0.0,79,0.00,CLR,,0.00,WeatherDisplay:10.37,2013-02-09 18:35:00,
2013-02-10 05:40:00,73.2,66.3,29.77,North,354,0.0,0.0,79,0.00,CLR,,0.00,WeatherDisplay:10.37,2013-02-09 18:40:00,
2013-02-10 05:45:00,73.2,66.3,29.77,North,7,0.0,0.0,79,0.00,CLR,,0.00,WeatherDisplay:10.37,2013-02-09 18:45:00,
2013-02-10 05:50:00,73.1,66.2,29.77,North,4,0.0,0.0,79,0.00,CLR,,0.00,WeatherDisplay:10.37,2013-02-09 18:50:00,
2013-02-10 05:55:00,73.2,66.2,29.77,NNE,20,0.0,0.0,79,0.00,CLR,,0.00,WeatherDisplay:10.37,2013-02-09 18:55:00,
2013-02-10 06:00:00,73.0,66.1,29.76,NE,37,0.0,0.0,79,0.00,CLR,,0.00,WeatherDisplay:10.37,2013-02-09 19:00:00,
2013-02-10 06:10:00,73.0,66.1,29.76,NNE,32,0.0,0.0,79,0.00,CLR,,0.00,WeatherDisplay:10.37,2013-02-09 19:10:00,
2013-02-10 06:15:00,72.9,66.0,29.77,NE,56,0.0,0.0,79,0.00,CLR,,0.00,WeatherDisplay:10.37,2013-02-09 19:15:00,
2013-02-10 06:20:00,72.7,65.8,29.77,ENE,77,0.0,0.0,79,0.00,CLR,,0.00,WeatherDisplay:10.37,2013-02-09 19:20:00,
2013-02-10 06:25:00,72.7,65.8,29.77,NNE,23,0.0,0.0,79,0.00,CLR,,0.00,WeatherDisplay:10.37,2013-02-09 19:25:00,
2013-02-10 06:30:00,72.7,65.8,29.77,North,356,0.0,0.0,79,0.00,CLR,,0.00,WeatherDisplay:10.37,2013-02-09 19:30:00,
2013-02-10 06:35:00,72.7,65.8,29.77,NNE,29,0.0,0.0,79,0.00,CLR,,0.00,WeatherDisplay:10.37,2013-02-09 19:35:00,
2013-02-10 06:40:00,72.5,65.6,29.77,East,81,0.0,0.0,79,0.00,CLR,,0.00,WeatherDisplay:10.37,2013-02-09 19:40:00,
2013-02-10 06:45:00,72.5,65.6,29.77,SSW,192,0.0,0.0,79,0.00,CLR,,0.00,WeatherDisplay:10.37,2013-02-09 19:45:00,
2013-02-10 06:50:00,72.5,65.6,29.77,SW,216,0.0,0.0,79,0.00,CLR,,0.00,WeatherDisplay:10.37,2013-02-09 19:50:00,
2013-02-10 06:55:00,72.3,65.4,29.77,SW,225,0.0,0.0,79,0.00,CLR,,0.00,WeatherDisplay:10.37,2013-02-09 19:55:00,
2013-02-10 07:00:00,72.5,65.6,29.77,SSW,205,0.0,0.0,79,0.00,CLR,,0.00,WeatherDisplay:10.37,2013-02-09 20:00:00,
2013-02-10 07:05:00,72.4,65.5,29.77,South,188,0.0,0.0,79,0.00,CLR,,0.00,WeatherDisplay:10.37,2013-02-09 20:05:00,
2013-02-10 07:10:00,72.3,65.4,29.77,East,83,0.0,2.0,79,0.00,CLR,,0.00,WeatherDisplay:10.37,2013-02-09 20:10:00,
2013-02-10 07:15:00,72.4,65.5,29.77,NE,35,0.0,2.0,79,0.00,CLR,,0.00,WeatherDisplay:10.37,2013-02-09 20:15:00,
2013-02-10 07:20:00,72.4,65.6,29.77,NNE,20,0.0,1.0,79,0.00,CLR,,0.00,WeatherDisplay:10.37,2013-02-09 20:20:00,
2013-02-10 07:25:00,72.5,66.0,29.78,NNE,19,0.0,1.0,80,0.00,CLR,,0.00,WeatherDisplay:10.37,2013-02-09 20:25:00,
2013-02-10 07:30:00,72.6,66.1,29.78,NNE,29,0.0,0.0,80,0.00,CLR,,0.00,WeatherDisplay:10.37,2013-02-09 20:30:00,
2013-02-10 07:35:00,72.7,66.2,29.78,NE,42,0.0,2.0,80,0.00,CLR,,0.00,WeatherDisplay:10.37,2013-02-09 20:35:00,
2013-02-10 07:40:00,73.0,66.5,29.78,NE,46,1.0,4.0,80,0.00,CLR,,0.00,WeatherDisplay:10.37,2013-02-09 20:40:00,
2013-02-10 07:45:00,73.0,66.5,29.79,NNE,31,0.0,4.0,80,0.00,CLR,,0.00,WeatherDisplay:10.37,2013-02-09 20:45:00,
2013-02-10 07:50:00,73.2,66.7,29.79,NNE,26,1.0,4.0,80,0.00,CLR,,0.00,WeatherDisplay:10.37,2013-02-09 20:50:00,
2013-02-10 07:55:00,73.2,66.7,29.79,NE,36,1.0,5.0,80,0.00,CLR,,0.00,WeatherDisplay:10.37,2013-02-09 20:55:00,
2013-02-10 08:00:00,73.6,67.0,29.79,NE,35,0.0,2.0,80,0.00,CLR,,0.00,WeatherDisplay:10.37,2013-02-09 21:00:00,
2013-02-10 08:05:00,73.8,67.2,29.79,NNE,30,0.0,2.0,80,0.00,CLR,,0.00,WeatherDisplay:10.37,2013-02-09 21:05:00,
2013-02-10 08:15:00,74.3,67.7,29.79,NNE,20,0.0,4.0,80,0.00,CLR,,0.00,WeatherDisplay:10.37,2013-02-09 21:15:00,
2013-02-10 08:20:00,74.5,67.9,29.79,NNE,20,0.0,0.0,80,0.00,CLR,,0.00,WeatherDisplay:10.37,2013-02-09 21:20:00,
2013-02-10 08:25:00,75.0,68.1,29.79,NNE,12,0.0,2.0,79,0.00,CLR,,0.00,WeatherDisplay:10.37,2013-02-09 21:25:00,
2013-02-10 08:30:00,75.5,68.5,29.79,North,5,0.0,2.0,79,0.00,CLR,,0.00,WeatherDisplay:10.37,2013-02-09 21:30:00,
2013-02-10 08:35:00,75.9,69.0,29.79,North,0,0.0,3.0,79,0.00,CLR,,0.00,WeatherDisplay:10.37,2013-02-09 21:35:00,
2013-02-10 08:40:00,76.7,69.4,29.79,North,11,1.0,2.0,78,0.00,CLR,,0.00,WeatherDisplay:10.37,2013-02-09 21:40:00,
2013-02-10 08:45:00,77.2,69.5,29.79,North,3,0.0,1.0,77,0.00,CLR,,0.00,WeatherDisplay:10.37,2013-02-09 21:45:00,
2013-02-10 08:50:00,78.0,69.8,29.79,North,2,1.0,5.0,76,0.00,CLR,,0.00,WeatherDisplay:10.37,2013-02-09 21:50:00,
2013-02-10 08:55:00,78.4,69.9,29.79,NNE,23,0.0,4.0,75,0.00,CLR,,0.00,WeatherDisplay:10.37,2013-02-09 21:55:00,
2013-02-10 09:00:00,78.8,70.2,29.79,NNE,23,2.0,4.0,75,0.00,CLR,,0.00,WeatherDisplay:10.37,2013-02-09 22:00:00,
2013-02-10 09:05:00,79.3,70.3,29.79,North,7,0.0,3.0,74,0.00,CLR,,0.00,WeatherDisplay:10.37,2013-02-09 22:05:00,
2013-02-10 09:10:00,79.6,70.6,29.79,NNE,21,0.0,4.0,74,0.00,CLR,,0.00,WeatherDisplay:10.37,2013-02-09 22:10:00,
2013-02-10 09:15:00,80.3,70.9,29.79,North,358,0.0,2.0,73,0.00,CLR,,0.00,WeatherDisplay:10.37,2013-02-09 22:15:00,
2013-02-10 09:25:00,81.9,71.6,29.78,North,349,1.0,3.0,71,0.00,CLR,,0.00,WeatherDisplay:10.37,2013-02-09 22:25:00,
2013-02-10 09:30:00,82.3,71.6,29.79,North,9,1.0,5.0,70,0.00,CLR,,0.00,WeatherDisplay:10.37,2013-02-09 22:30:00,
2013-02-10 09:35:00,83.1,71.9,29.79,North,2,2.0,6.0,69,0.00,CLR,,0.00,WeatherDisplay:10.37,2013-02-09 22:35:00,
2013-02-10 09:40:00,83.8,72.1,29.79,NNE,30,2.0,6.0,68,0.00,CLR,,0.00,WeatherDisplay:10.37,2013-02-09 22:40:00,
2013-02-10 09:45:00,84.4,71.8,29.79,NE,40,5.0,6.0,66,0.00,CLR,,0.00,WeatherDisplay:10.37,2013-02-09 22:45:00,
2013-02-10 09:50:00,84.7,71.7,29.80,NNE,33,2.0,6.0,65,0.00,CLR,,0.00,WeatherDisplay:10.37,2013-02-09 22:50:00,
2013-02-10 10:00:00,85.9,72.4,29.79,NNW,327,0.0,0.0,64,0.00,CLR,,0.00,WeatherDisplay:10.37,2013-02-09 23:00:00,
2013-02-10 10:05:00,86.5,72.0,29.80,NNW,337,0.0,4.0,62,0.00,CLR,,0.00,WeatherDisplay:10.37,2013-02-09 23:05:00,
2013-02-10 10:10:00,87.0,71.5,29.80,North,1,0.0,2.0,60,0.00,CLR,,0.00,WeatherDisplay:10.37,2013-02-09 23:10:00,
2013-02-10 10:15:00,87.6,72.0,29.80,North,350,0.0,2.0,60,0.00,CLR,,0.00,WeatherDisplay:10.37,2013-02-09 23:15:00,
2013-02-10 10:20:00,88.3,72.1,29.80,North,350,0.0,4.0,59,0.00,CLR,,0.00,WeatherDisplay:10.37,2013-02-09 23:20:00,
2013-02-10 10:25:00,88.8,72.1,29.80,North,359,0.0,2.0,58,0.00,CLR,,0.00,WeatherDisplay:10.37,2013-02-09 23:25:00,
2013-02-10 10:30:00,89.4,72.2,29.80,NNE,28,0.0,2.0,57,0.00,CLR,,0.00,WeatherDisplay:10.37,2013-02-09 23:30:00,
2013-02-10 10:35:00,90.0,72.2,29.80,NNW,328,1.0,6.0,56,0.00,CLR,,0.00,WeatherDisplay:10.37,2013-02-09 23:35:00,
2013-02-10 10:40:00,90.3,72.0,29.80,NW,326,1.0,6.0,55,0.00,CLR,,0.00,WeatherDisplay:10.37,2013-02-09 23:40:00,
2013-02-10 10:45:00,90.7,72.3,29.80,North,352,0.0,5.0,55,0.00,CLR,,0.00,WeatherDisplay:10.37,2013-02-09 23:45:00,
2013-02-10 10:50:00,91.2,72.2,29.80,NW,315,0.0,3.0,54,0.00,CLR,,0.00,WeatherDisplay:10.37,2013-02-09 23:50:00,
2013-02-10 10:55:00,91.9,72.4,29.80,WSW,253,3.0,5.0,53,0.00,CLR,,0.00,WeatherDisplay:10.37,2013-02-09 23:55:00,
2013-02-10 11:00:00,92.3,72.1,29.80,WSW,256,0.0,5.0,52,0.00,CLR,,0.00,WeatherDisplay:10.37,2013-02-10 00:00:00,
2013-02-10 11:05:00,92.1,71.4,29.80,WNW,301,0.0,3.0,51,0.00,CLR,,0.00,WeatherDisplay:10.37,2013-02-10 00:05:00,
2013-02-10 11:10:00,91.8,71.6,29.80,NW,320,0.0,2.0,52,0.00,CLR,,0.00,WeatherDisplay:10.37,2013-02-10 00:10:00,
2013-02-10 11:15:00,91.2,71.1,29.80,North,349,0.0,1.0,52,0.00,CLR,,0.00,WeatherDisplay:10.37,2013-02-10 00:15:00,
2013-02-10 11:20:00,91.2,71.1,29.80,NW,315,1.0,4.0,52,0.00,CLR,,0.00,WeatherDisplay:10.37,2013-02-10 00:20:00,
2013-02-10 11:25:00,91.2,71.1,29.80,WSW,255,0.0,0.0,52,0.00,CLR,,0.00,WeatherDisplay:10.37,2013-02-10 00:25:00,
2013-02-10 11:30:00,91.0,72.1,29.80,SSW,203,1.0,6.0,54,0.00,CLR,,0.00,WeatherDisplay:10.37,2013-02-10 00:30:00,
2013-02-10 11:35:00,91.0,72.6,29.80,South,190,1.0,6.0,55,0.00,CLR,,0.00,WeatherDisplay:10.37,2013-02-10 00:35:00,
2013-02-10 11:40:00,91.2,73.3,29.81,SE,125,2.0,6.0,56,0.00,CLR,,0.00,WeatherDisplay:10.37,2013-02-10 00:40:00,
2013-02-10 11:45:00,91.6,73.7,29.81,South,189,2.0,7.0,56,0.00,CLR,,0.00,WeatherDisplay:10.37,2013-02-10 00:45:00,
2013-02-10 11:50:00,91.7,73.7,29.80,SW,219,1.0,5.0,56,0.00,CLR,,0.00,WeatherDisplay:10.37,2013-02-10 00:50:00,
2013-02-10 11:55:00,91.9,74.0,29.81,SW,217,0.0,5.0,56,0.00,CLR,,0.00,WeatherDisplay:10.37,2013-02-10 00:55:00,
2013-02-10 12:00:00,92.1,73.6,29.81,ESE,108,1.0,5.0,55,0.00,CLR,,0.00,WeatherDisplay:10.37,2013-02-10 01:00:00,
2013-02-10 12:05:00,92.1,73.6,29.80,NW,315,0.0,4.0,55,0.00,CLR,,0.00,WeatherDisplay:10.37,2013-02-10 01:05:00,
2013-02-10 12:10:00,92.5,74.0,29.80,NE,50,2.0,4.0,55,0.00,CLR,,0.00,WeatherDisplay:10.37,2013-02-10 01:10:00,
2013-02-10 12:15:00,92.8,74.3,29.80,NE,52,1.0,6.0,55,0.00,CLR,,0.00,WeatherDisplay:10.37,2013-02-10 01:15:00,
2013-02-10 12:20:00,92.8,74.3,29.80,South,178,1.0,6.0,55,0.00,CLR,,0.00,WeatherDisplay:10.37,2013-02-10 01:20:00,
2013-02-10 12:25:00,93.0,74.5,29.80,SSE,156,0.0,3.0,55,0.00,CLR,,0.00,WeatherDisplay:10.37,2013-02-10 01:25:00,
2013-02-10 12:30:00,93.6,74.4,29.80,East,83,1.0,3.0,54,0.00,CLR,,0.00,WeatherDisplay:10.37,2013-02-10 01:30:00,
2013-02-10 12:35:00,93.6,74.5,29.79,NE,39,1.0,3.0,54,0.00,CLR,,0.00,WeatherDisplay:10.37,2013-02-10 01:35:00,
2013-02-10 12:40:00,93.7,74.6,29.79,NNE,29,1.0,2.0,54,0.00,CLR,,0.00,WeatherDisplay:10.37,2013-02-10 01:40:00,
2013-02-10 12:45:00,93.7,74.0,29.79,NNE,23,1.0,5.0,53,0.00,CLR,,0.00,WeatherDisplay:10.37,2013-02-10 01:45:00,
2013-02-10 12:50:00,93.6,73.9,29.79,NNE,32,1.0,4.0,53,0.00,CLR,,0.00,WeatherDisplay:10.37,2013-02-10 01:50:00,
2013-02-10 12:55:00,93.6,73.9,29.79,NNE,20,0.0,5.0,53,0.00,CLR,,0.00,WeatherDisplay:10.37,2013-02-10 01:55:00,
2013-02-10 13:00:00,93.7,74.0,29.79,NNE,18,1.0,5.0,53,0.00,CLR,,0.00,WeatherDisplay:10.37,2013-02-10 02:00:00,
2013-02-10 13:05:00,94.4,74.6,29.79,ESE,122,0.0,3.0,53,0.00,CLR,,0.00,WeatherDisplay:10.37,2013-02-10 02:05:00,
2013-02-10 13:10:00,94.9,74.6,29.78,ENE,58,1.0,5.0,52,0.00,CLR,,0.00,WeatherDisplay:10.37,2013-02-10 02:10:00,
2013-02-10 13:15:00,95.4,74.9,29.78,SW,226,2.0,8.0,52,0.00,CLR,,0.00,WeatherDisplay:10.37,2013-02-10 02:15:00,
2013-02-10 13:20:00,95.7,74.7,29.78,SW,219,0.0,2.0,51,0.00,CLR,,0.00,WeatherDisplay:10.37,2013-02-10 02:20:00,
2013-02-10 13:25:00,96.1,75.0,29.78,East,79,1.0,5.0,51,0.00,CLR,,0.00,WeatherDisplay:10.37,2013-02-10 02:25:00,
2013-02-10 13:30:00,96.1,75.0,29.78,West,273,1.0,5.0,51,0.00,CLR,,0.00,WeatherDisplay:10.37,2013-02-10 02:30:00,
2013-02-10 13:35:00,96.3,75.2,29.78,SSW,199,2.0,7.0,51,0.00,CLR,,0.00,WeatherDisplay:10.37,2013-02-10 02:35:00,
2013-02-10 13:40:00,96.4,74.7,29.78,South,170,1.0,4.0,50,0.00,CLR,,0.00,WeatherDisplay:10.37,2013-02-10 02:40:00,
2013-02-10 13:45:00,96.1,74.4,29.78,NE,50,2.0,6.0,50,0.00,CLR,,0.00,WeatherDisplay:10.37,2013-02-10 02:45:00,
2013-02-10 13:50:00,95.7,74.1,29.78,ENE,62,1.0,6.0,50,0.00,CLR,,0.00,WeatherDisplay:10.37,2013-02-10 02:50:00,
2013-02-10 14:05:00,95.4,73.8,29.78,SE,131,1.0,6.0,50,0.00,CLR,,0.00,WeatherDisplay:10.37,2013-02-10 03:05:00,
2013-02-10 14:10:00,95.4,73.8,29.79,South,170,3.0,8.0,50,0.00,CLR,,0.00,WeatherDisplay:10.37,2013-02-10 03:10:00,
2013-02-10 14:15:00,95.2,73.6,29.78,SSE,163,1.0,9.0,50,0.00,CLR,,0.00,WeatherDisplay:10.37,2013-02-10 03:15:00,
2013-02-10 14:20:00,94.9,73.3,29.78,SSE,165,5.0,6.0,50,0.00,CLR,,0.00,WeatherDisplay:10.37,2013-02-10 03:20:00,
2013-02-10 14:25:00,94.8,72.7,29.79,South,182,3.0,9.0,49,0.00,CLR,,0.00,WeatherDisplay:10.37,2013-02-10 03:25:00,
2013-02-10 14:30:00,94.8,72.1,29.78,SSW,193,5.0,15.0,48,0.00,CLR,,0.00,WeatherDisplay:10.37,2013-02-10 03:30:00,
2013-02-10 14:35:00,94.8,72.1,29.78,SSW,202,7.0,15.0,48,0.00,CLR,,0.00,WeatherDisplay:10.37,2013-02-10 03:35:00,
2013-02-10 14:40:00,94.6,71.9,29.78,WSW,257,2.0,8.0,48,0.00,CLR,,0.00,WeatherDisplay:10.37,2013-02-10 03:40:00,
2013-02-10 14:45:00,94.3,71.6,29.78,SW,223,6.0,11.0,48,0.00,CLR,,0.00,WeatherDisplay:10.37,2013-02-10 03:45:00,
2013-02-10 14:50:00,94.3,71.0,29.78,WSW,252,1.0,10.0,47,0.00,CLR,,0.00,WeatherDisplay:10.37,2013-02-10 03:50:00,
2013-02-10 14:55:00,94.3,71.0,29.78,WSW,240,3.0,9.0,47,0.00,CLR,,0.00,WeatherDisplay:10.37,2013-02-10 03:55:00,
2013-02-10 15:00:00,94.3,70.3,29.78,WSW,253,5.0,9.0,46,0.00,CLR,,0.00,WeatherDisplay:10.37,2013-02-10 04:00:00,
2013-02-10 15:05:00,94.5,70.5,29.78,SW,216,5.0,13.0,46,0.00,CLR,,0.00,WeatherDisplay:10.37,2013-02-10 04:05:00,
2013-02-10 15:10:00,94.6,71.3,29.78,South,176,2.0,8.0,47,0.00,CLR,,0.00,WeatherDisplay:10.37,2013-02-10 04:10:00,
2013-02-10 15:15:00,94.3,71.0,29.78,SSE,157,5.0,8.0,47,0.00,CLR,,0.00,WeatherDisplay:10.37,2013-02-10 04:15:00,
2013-02-10 15:20:00,94.0,70.1,29.78,SSW,206,6.0,9.0,46,0.00,CLR,,0.00,WeatherDisplay:10.37,2013-02-10 04:20:00,
2013-02-10 15:25:00,93.7,69.8,29.78,SW,216,2.0,8.0,46,0.00,CLR,,0.00,WeatherDisplay:10.37,2013-02-10 04:25:00,
2013-02-10 15:30:00,92.9,69.7,29.79,South,171,2.0,6.0,47,0.00,CLR,,0.00,WeatherDisplay:10.37,2013-02-10 04:30:00,
2013-02-10 15:35:00,92.1,69.6,29.79,ESE,120,5.0,7.0,48,0.00,CLR,,0.00,WeatherDisplay:10.37,2013-02-10 04:35:00,
2013-02-10 15:40:00,91.7,70.4,29.80,SSW,197,3.0,8.0,50,0.00,CLR,,0.00,WeatherDisplay:10.37,2013-02-10 04:40:00,
2013-02-10 15:45:00,91.2,70.6,29.80,SW,214,6.0,13.0,51,0.00,CLR,,0.00,WeatherDisplay:10.37,2013-02-10 04:45:00,
2013-02-10 15:50:00,90.7,70.7,29.79,SW,222,8.0,13.0,52,0.00,CLR,,0.00,WeatherDisplay:10.37,2013-02-10 04:50:00,
2013-02-10 15:55:00,90.3,70.9,29.79,SW,228,1.0,7.0,53,0.00,CLR,,0.00,WeatherDisplay:10.37,2013-02-10 04:55:00,
2013-02-10 16:00:00,89.8,70.9,29.80,SW,219,3.0,8.0,54,0.00,CLR,,0.00,WeatherDisplay:10.37,2013-02-10 05:00:00,
2013-02-10 16:05:00,89.4,71.1,29.79,SW,215,6.0,12.0,55,0.00,CLR,,0.00,WeatherDisplay:10.37,2013-02-10 05:05:00,
2013-02-10 16:10:00,89.0,70.7,29.80,SW,217,3.0,7.0,55,0.00,CLR,,0.00,WeatherDisplay:10.37,2013-02-10 05:10:00,
2013-02-10 16:15:00,88.4,70.7,29.80,SW,215,3.0,8.0,56,0.00,CLR,,0.00,WeatherDisplay:10.37,2013-02-10 05:15:00,
2013-02-10 16:20:00,88.0,70.3,29.80,SSW,193,3.0,6.0,56,0.00,CLR,,0.00,WeatherDisplay:10.37,2013-02-10 05:20:00,
2013-02-10 16:25:00,87.6,70.0,29.80,SSW,204,5.0,12.0,56,0.00,CLR,,0.00,WeatherDisplay:10.37,2013-02-10 05:25:00,
2013-02-10 16:30:00,87.2,69.6,29.80,SSW,205,2.0,7.0,56,0.00,CLR,,0.00,WeatherDisplay:10.37,2013-02-10 05:30:00,
2013-02-10 16:35:00,86.5,69.5,29.79,SW,219,2.0,9.0,57,0.00,CLR,,0.00,WeatherDisplay:10.37,2013-02-10 05:35:00,
2013-02-10 16:40:00,85.8,69.3,29.80,SSW,212,2.0,12.0,58,0.00,CLR,,0.00,WeatherDisplay:10.37,2013-02-10 05:40:00,
2013-02-10 16:45:00,85.3,69.3,29.79,SW,236,0.0,6.0,59,0.00,CLR,,0.00,WeatherDisplay:10.37,2013-02-10 05:45:00,
2013-02-10 16:50:00,84.9,69.5,29.79,WSW,243,6.0,14.0,60,0.00,CLR,,0.00,WeatherDisplay:10.37,2013-02-10 05:50:00,
2013-02-10 16:55:00,84.7,69.2,29.79,SW,225,7.0,14.0,60,0.00,CLR,,0.00,WeatherDisplay:10.37,2013-02-10 05:55:00,
2013-02-10 17:00:00,84.3,68.9,29.79,WSW,246,12.0,16.0,60,0.00,CLR,,0.00,WeatherDisplay:10.37,2013-02-10 06:00:00,
2013-02-10 17:05:00,84.0,69.1,29.79,WSW,245,1.0,5.0,61,0.00,CLR,,0.00,WeatherDisplay:10.37,2013-02-10 06:05:00,
2013-02-10 17:10:00,84.0,69.1,29.80,West,266,0.0,5.0,61,0.00,CLR,,0.00,WeatherDisplay:10.37,2013-02-10 06:10:00,
2013-02-10 17:15:00,84.0,69.1,29.80,SW,235,3.0,7.0,61,0.00,CLR,,0.00,WeatherDisplay:10.37,2013-02-10 06:15:00,
2013-02-10 17:20:00,84.0,69.1,29.80,SW,214,6.0,8.0,61,0.00,CLR,,0.00,WeatherDisplay:10.37,2013-02-10 06:20:00,
2013-02-10 17:25:00,84.0,69.1,29.80,SW,222,5.0,8.0,61,0.00,CLR,,0.00,WeatherDisplay:10.37,2013-02-10 06:25:00,
2013-02-10 17:35:00,83.7,69.3,29.80,SW,214,6.0,8.0,62,0.00,CLR,,0.00,WeatherDisplay:10.37,2013-02-10 06:35:00,
2013-02-10 17:40:00,83.5,69.1,29.80,SW,216,3.0,8.0,62,0.00,CLR,,0.00,WeatherDisplay:10.37,2013-02-10 06:40:00,
2013-02-10 17:45:00,83.4,69.0,29.80,WSW,237,1.0,5.0,62,0.00,CLR,,0.00,WeatherDisplay:10.37,2013-02-10 06:45:00,
2013-02-10 17:50:00,83.1,69.2,29.80,SW,233,6.0,11.0,63,0.00,CLR,,0.00,WeatherDisplay:10.37,2013-02-10 06:50:00,
2013-02-10 17:55:00,83.1,69.2,29.80,WSW,245,5.0,9.0,63,0.00,CLR,,0.00,WeatherDisplay:10.37,2013-02-10 06:55:00,
2013-02-10 18:00:00,82.8,68.9,29.80,West,261,5.0,9.0,63,0.00,CLR,,0.00,WeatherDisplay:10.37,2013-02-10 07:00:00,
2013-02-10 18:05:00,82.8,68.9,29.80,WSW,257,3.0,8.0,63,0.00,CLR,,0.00,WeatherDisplay:10.37,2013-02-10 07:05:00,
2013-02-10 18:10:00,82.6,68.7,29.79,SW,230,1.0,8.0,63,0.00,CLR,,0.00,WeatherDisplay:10.37,2013-02-10 07:10:00,
2013-02-10 18:20:00,82.2,68.4,29.80,SW,234,7.0,12.0,63,0.00,CLR,,0.00,WeatherDisplay:10.37,2013-02-10 07:20:00,
2013-02-10 18:25:00,82.2,68.8,29.80,SW,220,2.0,7.0,64,0.00,CLR,,0.00,WeatherDisplay:10.37,2013-02-10 07:25:00,
2013-02-10 18:30:00,82.0,68.7,29.80,SW,229,5.0,10.0,64,0.00,CLR,,0.00,WeatherDisplay:10.37,2013-02-10 07:30:00,
2013-02-10 18:35:00,82.0,68.7,29.80,WSW,243,1.0,11.0,64,0.00,CLR,,0.00,WeatherDisplay:10.37,2013-02-10 07:35:00,
2013-02-10 18:40:00,81.7,68.8,29.80,WSW,252,3.0,8.0,65,0.00,CLR,,0.00,WeatherDisplay:10.37,2013-02-10 07:40:00,
2013-02-10 18:45:00,81.7,68.8,29.81,SW,233,2.0,10.0,65,0.00,CLR,,0.00,WeatherDisplay:10.37,2013-02-10 07:45:00,
2013-02-10 18:50:00,82.1,69.1,29.81,SW,230,6.0,14.0,65,0.00,CLR,,0.00,WeatherDisplay:10.37,2013-02-10 07:50:00,
2013-02-10 18:55:00,82.2,68.8,29.81,SW,229,6.0,12.0,64,0.00,CLR,,0.00,WeatherDisplay:10.37,2013-02-10 07:55:00,
2013-02-10 19:00:00,82.3,68.9,29.82,SW,232,3.0,12.0,64,0.00,CLR,,0.00,WeatherDisplay:10.37,2013-02-10 08:00:00,
2013-02-10 19:05:00,82.2,68.8,29.82,SW,231,5.0,10.0,64,0.00,CLR,,0.00,WeatherDisplay:10.37,2013-02-10 08:05:00,
2013-02-10 19:10:00,82.0,68.7,29.83,SSW,211,3.0,7.0,64,0.00,CLR,,0.00,WeatherDisplay:10.37,2013-02-10 08:10:00,
2013-02-10 19:15:00,81.9,68.5,29.84,SW,233,6.0,19.0,64,0.00,CLR,,0.00,WeatherDisplay:10.37,2013-02-10 08:15:00,
2013-02-10 19:20:00,81.7,68.8,29.84,WSW,237,2.0,9.0,65,0.00,CLR,,0.00,WeatherDisplay:10.37,2013-02-10 08:20:00,
2013-02-10 19:25:00,81.4,68.5,29.84,SW,225,3.0,15.0,65,0.00,CLR,,0.00,WeatherDisplay:10.37,2013-02-10 08:25:00,
2013-02-10 19:30:00,81.1,68.2,29.85,SW,214,5.0,23.0,65,0.00,CLR,,0.00,WeatherDisplay:10.37,2013-02-10 08:30:00,
2013-02-10 19:35:00,80.4,68.0,29.85,SSW,211,1.0,8.0,66,0.00,CLR,,0.00,WeatherDisplay:10.37,2013-02-10 08:35:00,
2013-02-10 19:40:00,79.8,67.5,29.85,WSW,238,6.0,12.0,66,0.00,CLR,,0.00,WeatherDisplay:10.37,2013-02-10 08:40:00,
2013-02-10 19:45:00,79.3,67.0,29.85,SW,223,6.0,12.0,66,0.00,CLR,,0.00,WeatherDisplay:10.37,2013-02-10 08:45:00,
2013-02-10 19:50:00,79.0,67.1,29.86,SW,223,3.0,11.0,67,0.00,CLR,,0.00,WeatherDisplay:10.37,2013-02-10 08:50:00,
2013-02-10 19:55:00,78.6,67.2,29.86,SW,225,5.0,11.0,68,0.00,CLR,,0.00,WeatherDisplay:10.37,2013-02-10 08:55:00,
2013-02-10 20:00:00,78.2,66.8,29.87,WSW,247,6.0,13.0,68,0.00,CLR,,0.00,WeatherDisplay:10.37,2013-02-10 09:00:00,
2013-02-10 20:05:00,78.0,66.6,29.86,West,260,3.0,17.0,68,0.00,CLR,,0.00,WeatherDisplay:10.37,2013-02-10 09:05:00,
2013-02-10 20:10:00,77.7,66.7,29.87,WSW,248,5.0,16.0,69,0.00,CLR,,0.00,WeatherDisplay:10.37,2013-02-10 09:10:00,
2013-02-10 20:15:00,77.5,66.6,29.88,SW,226,3.0,12.0,69,0.00,CLR,,0.00,WeatherDisplay:10.37,2013-02-10 09:15:00,
2013-02-10 20:20:00,77.4,66.5,29.88,WSW,255,1.0,6.0,69,0.00,CLR,,0.00,WeatherDisplay:10.37,2013-02-10 09:20:00,
2013-02-10 20:30:00,77.0,66.1,29.88,SW,234,7.0,19.0,69,0.00,CLR,,0.00,WeatherDisplay:10.37,2013-02-10 09:30:00,
2013-02-10 20:35:00,76.9,66.0,29.89,SW,222,2.0,9.0,69,0.00,CLR,,0.00,WeatherDisplay:10.37,2013-02-10 09:35:00,
2013-02-10 20:40:00,76.8,65.9,29.90,SSW,202,5.0,14.0,69,0.00,CLR,,0.00,WeatherDisplay:10.37,2013-02-10 09:40:00,
2013-02-10 20:45:00,76.8,65.9,29.89,SW,228,3.0,14.0,69,0.00,CLR,,0.00,WeatherDisplay:10.37,2013-02-10 09:45:00,
2013-02-10 20:50:00,76.8,65.9,29.89,SW,224,7.0,10.0,69,0.00,CLR,,0.00,WeatherDisplay:10.37,2013-02-10 09:50:00,
2013-02-10 20:55:00,76.8,65.5,29.90,SW,227,1.0,7.0,68,0.00,CLR,,0.00,WeatherDisplay:10.37,2013-02-10 09:55:00,
2013-02-10 21:00:00,76.8,65.5,29.91,WSW,247,12.0,15.0,68,0.00,CLR,,0.00,WeatherDisplay:10.37,2013-02-10 10:00:00,
2013-02-10 21:05:00,76.8,65.9,29.91,WSW,258,6.0,11.0,69,0.00,CLR,,0.00,WeatherDisplay:10.37,2013-02-10 10:05:00,
2013-02-10 21:10:00,76.8,65.9,29.92,WSW,245,3.0,12.0,69,0.00,CLR,,0.00,WeatherDisplay:10.37,2013-02-10 10:10:00,
2013-02-10 21:15:00,76.8,65.9,29.92,SW,220,5.0,8.0,69,0.00,CLR,,0.00,WeatherDisplay:10.37,2013-02-10 10:15:00,
2013-02-10 21:20:00,76.6,66.1,29.92,SSW,208,5.0,8.0,70,0.00,CLR,,0.00,WeatherDisplay:10.37,2013-02-10 10:20:00,
2013-02-10 21:25:00,76.5,66.4,29.93,SSW,211,6.0,14.0,71,0.00,CLR,,0.00,WeatherDisplay:10.37,2013-02-10 10:25:00,
2013-02-10 21:30:00,76.2,66.5,29.93,SW,223,7.0,15.0,72,0.00,CLR,,0.00,WeatherDisplay:10.37,2013-02-10 10:30:00,
2013-02-10 21:35:00,75.9,66.2,29.93,SW,222,8.0,13.0,72,0.00,CLR,,0.00,WeatherDisplay:10.37,2013-02-10 10:35:00,
2013-02-10 21:40:00,75.6,65.9,29.93,SSW,213,8.0,14.0,72,0.00,CLR,,0.00,WeatherDisplay:10.37,2013-02-10 10:40:00,
2013-02-10 21:45:00,75.4,66.1,29.94,SW,233,8.0,24.0,73,0.00,CLR,,0.00,WeatherDisplay:10.37,2013-02-10 10:45:00,
2013-02-10 21:50:00,75.0,66.2,29.94,SW,229,2.0,24.0,74,0.00,CLR,,0.00,WeatherDisplay:10.37,2013-02-10 10:50:00,
2013-02-10 21:55:00,74.8,66.0,29.94,SW,226,3.0,15.0,74,0.00,CLR,,0.00,WeatherDisplay:10.37,2013-02-10 10:55:00,
2013-02-10 22:00:00,74.5,65.6,29.94,SW,227,3.0,10.0,74,0.00,CLR,,0.00,WeatherDisplay:10.37,2013-02-10 11:00:00,
2013-02-10 22:05:00,74.5,66.0,29.94,SW,225,7.0,14.0,75,0.02,RA,,0.02,WeatherDisplay:10.37,2013-02-10 11:05:00,
2013-02-10 22:10:00,74.3,65.9,29.94,SSW,212,6.0,9.0,75,0.00,RA,,0.02,WeatherDisplay:10.37,2013-02-10 11:10:00,
2013-02-10 22:15:00,74.1,65.7,29.94,SW,215,7.0,12.0,75,0.00,,,0.02,WeatherDisplay:10.37,2013-02-10 11:15:00,
2013-02-10 22:20:00,73.9,65.5,29.95,SW,227,3.0,8.0,75,0.00,,,0.02,WeatherDisplay:10.37,2013-02-10 11:20:00,
2013-02-10 22:25:00,73.9,65.5,29.95,SW,218,2.0,7.0,75,0.00,,,0.02,WeatherDisplay:10.37,2013-02-10 11:25:00,
2013-02-10 22:30:00,73.8,65.7,29.95,WSW,240,1.0,9.0,76,0.02,RA,,0.04,WeatherDisplay:10.37,2013-02-10 11:30:00,
2013-02-10 22:35:00,73.6,65.5,29.96,WSW,256,0.0,8.0,76,0.00,RA,,0.04,WeatherDisplay:10.37,2013-02-10 11:35:00,
2013-02-10 22:40:00,73.6,65.5,29.96,SW,222,0.0,2.0,76,0.02,RA,,0.06,WeatherDisplay:10.37,2013-02-10 11:40:00,
2013-02-10 22:45:00,73.6,65.9,29.96,SSW,207,2.0,5.0,77,0.02,RA,,0.08,WeatherDisplay:10.37,2013-02-10 11:45:00,
2013-02-10 22:50:00,73.6,65.9,29.97,WSW,245,2.0,6.0,77,0.02,RA,,0.10,WeatherDisplay:10.37,2013-02-10 11:50:00,
2013-02-10 22:55:00,73.4,65.7,29.97,WSW,252,1.0,3.0,77,0.02,RA,,0.12,WeatherDisplay:10.37,2013-02-10 11:55:00,
2013-02-10 23:00:00,73.2,65.6,29.96,West,269,0.0,2.0,77,0.00,RA,,0.12,WeatherDisplay:10.37,2013-02-10 12:00:00,
2013-02-10 23:05:00,73.0,65.4,29.96,WNW,283,0.0,2.0,77,0.00,,,0.12,WeatherDisplay:10.37,2013-02-10 12:05:00,
2013-02-10 23:10:00,72.7,65.1,29.96,WNW,294,0.0,2.0,77,0.02,RA,,0.14,WeatherDisplay:10.37,2013-02-10 12:10:00,
2013-02-10 23:15:00,72.5,64.9,29.95,WNW,293,0.0,0.0,77,0.02,RA,,0.16,WeatherDisplay:10.37,2013-02-10 12:15:00,
2013-02-10 23:20:00,72.5,65.2,29.94,WSW,250,0.0,0.0,78,0.02,RA,,0.18,WeatherDisplay:10.37,2013-02-10 12:20:00,
2013-02-10 23:25:00,72.5,65.2,29.93,SW,216,0.0,0.0,78,0.02,RA,,0.20,WeatherDisplay:10.37,2013-02-10 12:25:00,
2013-02-10 23:30:00,72.5,65.2,29.93,South,182,0.0,0.0,78,0.00,RA,,0.20,WeatherDisplay:10.37,2013-02-10 12:30:00,
2013-02-10 23:35:00,72.3,65.1,29.92,East,83,0.0,1.0,78,0.00,,,0.20,WeatherDisplay:10.37,2013-02-10 12:35:00,
2013-02-10 23:40:00,72.3,65.1,29.91,NE,34,1.0,3.0,78,0.00,,,0.20,WeatherDisplay:10.37,2013-02-10 12:40:00,
2013-02-10 23:45:00,72.3,65.4,29.90,NNE,13,0.0,2.0,79,0.00,,,0.20,WeatherDisplay:10.37,2013-02-10 12:45:00,
2013-02-10 23:50:00,72.3,65.4,29.91,NNW,337,0.0,0.0,79,0.00,,,0.20,WeatherDisplay:10.37,2013-02-10 12:50:00,
2013-02-10 23:55:00,72.3,65.4,29.89,NNW,343,0.0,2.0,79,0.00,,,0.20,WeatherDisplay:10.37,2013-02-10 12:55:00,